sensor_id;sensor_type;location;lat;lon;timestamp;temperature;humidity
569;DHT22;269;48.884;9.192;2023-04-15T00:00:28;7.40;99.90
569;DHT22;269;48.884;9.192;2023-04-15T00:02:55;7.40;99.90
569;DHT22;269;48.884;9.192;2023-04-15T00:05:23;7.20;99.90
569;DHT22;269;48.884;9.192;2023-04-15T00:07:50;7.10;99.90
569;DHT22;269;48.884;9.192;2023-04-15T00:10:18;7.10;99.90
569;DHT22;269;48.884;9.192;2023-04-15T00:12:45;7.10;99.90
569;DHT22;269;48.884;9.192;2023-04-15T00:15:12;7.20;99.90
569;DHT22;269;48.884;9.192;2023-04-15T00:17:40;7.20;99.90
569;DHT22;269;48.884;9.192;2023-04-15T00:20:08;7.20;99.90
569;DHT22;269;48.884;9.192;2023-04-15T00:22:36;7.20;99.90
569;DHT22;269;48.884;9.192;2023-04-15T00:25:04;7.10;99.90
569;DHT22;269;48.884;9.192;2023-04-15T00:27:31;7.00;99.90
569;DHT22;269;48.884;9.192;2023-04-15T00:29:59;6.50;99.90
569;DHT22;269;48.884;9.192;2023-04-15T00:32:27;6.90;99.90
569;DHT22;269;48.884;9.192;2023-04-15T00:34:54;6.80;99.90
569;DHT22;269;48.884;9.192;2023-04-15T00:37:21;6.70;99.90
569;DHT22;269;48.884;9.192;2023-04-15T00:39:49;6.60;99.90
569;DHT22;269;48.884;9.192;2023-04-15T00:42:17;6.60;99.90
569;DHT22;269;48.884;9.192;2023-04-15T00:44:46;6.50;99.90
569;DHT22;269;48.884;9.192;2023-04-15T00:47:14;6.50;99.90
569;DHT22;269;48.884;9.192;2023-04-15T00:49:42;6.50;99.90
569;DHT22;269;48.884;9.192;2023-04-15T00:52:09;6.80;99.90
569;DHT22;269;48.884;9.192;2023-04-15T00:54:36;6.50;99.90
569;DHT22;269;48.884;9.192;2023-04-15T00:57:05;6.50;99.90
569;DHT22;269;48.884;9.192;2023-04-15T00:59:34;6.50;99.90
569;DHT22;269;48.884;9.192;2023-04-15T01:02:01;6.40;99.90
569;DHT22;269;48.884;9.192;2023-04-15T01:04:28;6.40;99.90
569;DHT22;269;48.884;9.192;2023-04-15T01:06:56;6.40;99.90
569;DHT22;269;48.884;9.192;2023-04-15T01:09:23;6.40;99.90
569;DHT22;269;48.884;9.192;2023-04-15T01:11:51;6.40;99.90
569;DHT22;269;48.884;9.192;2023-04-15T01:14:20;6.50;99.90
569;DHT22;269;48.884;9.192;2023-04-15T01:16:47;6.50;99.90
569;DHT22;269;48.884;9.192;2023-04-15T01:19:15;6.40;99.90
569;DHT22;269;48.884;9.192;2023-04-15T01:21:42;6.40;99.90
569;DHT22;269;48.884;9.192;2023-04-15T01:24:10;6.40;99.90
569;DHT22;269;48.884;9.192;2023-04-15T01:26:39;6.20;99.90
569;DHT22;269;48.884;9.192;2023-04-15T01:29:06;6.20;99.90
569;DHT22;269;48.884;9.192;2023-04-15T01:31:33;6.20;99.90
569;DHT22;269;48.884;9.192;2023-04-15T01:34:00;6.20;99.90
569;DHT22;269;48.884;9.192;2023-04-15T01:36:27;6.10;99.90
569;DHT22;269;48.884;9.192;2023-04-15T01:38:55;6.10;99.90
569;DHT22;269;48.884;9.192;2023-04-15T01:41:24;6.00;99.90
569;DHT22;269;48.884;9.192;2023-04-15T01:43:53;6.00;99.90
569;DHT22;269;48.884;9.192;2023-04-15T01:46:21;5.90;99.90
569;DHT22;269;48.884;9.192;2023-04-15T01:48:48;5.90;99.90
569;DHT22;269;48.884;9.192;2023-04-15T01:51:15;5.80;99.90
569;DHT22;269;48.884;9.192;2023-04-15T01:53:42;5.70;99.90
569;DHT22;269;48.884;9.192;2023-04-15T01:56:09;5.60;99.90
569;DHT22;269;48.884;9.192;2023-04-15T01:58:36;5.50;99.90
569;DHT22;269;48.884;9.192;2023-04-15T02:01:06;5.60;99.90
569;DHT22;269;48.884;9.192;2023-04-15T02:03:35;5.50;99.90
569;DHT22;269;48.884;9.192;2023-04-15T02:06:03;5.50;99.90
569;DHT22;269;48.884;9.192;2023-04-15T02:08:31;5.50;99.90
569;DHT22;269;48.884;9.192;2023-04-15T02:10:58;5.40;99.90
569;DHT22;269;48.884;9.192;2023-04-15T02:13:25;5.30;99.90
569;DHT22;269;48.884;9.192;2023-04-15T02:15:53;5.20;99.90
569;DHT22;269;48.884;9.192;2023-04-15T02:18:22;5.10;99.90
569;DHT22;269;48.884;9.192;2023-04-15T02:20:50;5.10;99.90
569;DHT22;269;48.884;9.192;2023-04-15T02:23:18;5.10;99.90
569;DHT22;269;48.884;9.192;2023-04-15T02:25:45;5.10;99.90
569;DHT22;269;48.884;9.192;2023-04-15T02:28:12;5.10;99.90
569;DHT22;269;48.884;9.192;2023-04-15T02:30:39;5.20;99.90
569;DHT22;269;48.884;9.192;2023-04-15T02:33:06;5.20;99.90
569;DHT22;269;48.884;9.192;2023-04-15T02:35:35;5.20;99.90
569;DHT22;269;48.884;9.192;2023-04-15T02:38:04;5.20;99.90
569;DHT22;269;48.884;9.192;2023-04-15T02:40:31;5.20;99.90
569;DHT22;269;48.884;9.192;2023-04-15T02:42:58;5.20;99.90
569;DHT22;269;48.884;9.192;2023-04-15T02:45:26;5.20;99.90
569;DHT22;269;48.884;9.192;2023-04-15T02:47:53;5.20;99.90
569;DHT22;269;48.884;9.192;2023-04-15T02:50:20;5.20;99.90
569;DHT22;269;48.884;9.192;2023-04-15T02:52:49;5.40;99.90
569;DHT22;269;48.884;9.192;2023-04-15T02:55:17;5.10;99.90
569;DHT22;269;48.884;9.192;2023-04-15T02:57:43;5.10;99.90
569;DHT22;269;48.884;9.192;2023-04-15T03:00:12;5.10;99.90
569;DHT22;269;48.884;9.192;2023-04-15T03:02:39;5.10;99.90
569;DHT22;269;48.884;9.192;2023-04-15T03:05:10;5.10;99.90
569;DHT22;269;48.884;9.192;2023-04-15T03:07:38;5.10;99.90
569;DHT22;269;48.884;9.192;2023-04-15T03:10:08;5.20;99.90
569;DHT22;269;48.884;9.192;2023-04-15T03:12:35;5.20;99.90
569;DHT22;269;48.884;9.192;2023-04-15T03:15:02;5.20;99.90
569;DHT22;269;48.884;9.192;2023-04-15T03:17:29;5.10;99.90
569;DHT22;269;48.884;9.192;2023-04-15T03:19:56;5.10;99.90
569;DHT22;269;48.884;9.192;2023-04-15T03:22:23;4.90;99.90
569;DHT22;269;48.884;9.192;2023-04-15T03:24:51;4.80;99.90
569;DHT22;269;48.884;9.192;2023-04-15T03:27:19;4.80;99.90
569;DHT22;269;48.884;9.192;2023-04-15T03:29:47;4.70;99.90
569;DHT22;269;48.884;9.192;2023-04-15T03:32:14;4.70;99.90
569;DHT22;269;48.884;9.192;2023-04-15T03:34:41;4.70;99.90
569;DHT22;269;48.884;9.192;2023-04-15T03:37:08;4.60;99.90
569;DHT22;269;48.884;9.192;2023-04-15T03:39:35;4.60;99.90
569;DHT22;269;48.884;9.192;2023-04-15T03:42:02;4.50;99.90
569;DHT22;269;48.884;9.192;2023-04-15T03:44:31;4.50;99.90
569;DHT22;269;48.884;9.192;2023-04-15T03:46:58;4.50;99.90
569;DHT22;269;48.884;9.192;2023-04-15T03:49:25;4.50;99.90
569;DHT22;269;48.884;9.192;2023-04-15T03:51:52;4.40;99.90
569;DHT22;269;48.884;9.192;2023-04-15T03:54:19;4.40;99.90
569;DHT22;269;48.884;9.192;2023-04-15T03:56:46;4.40;99.90
569;DHT22;269;48.884;9.192;2023-04-15T03:59:13;4.30;99.90
569;DHT22;269;48.884;9.192;2023-04-15T04:01:41;4.30;99.90
569;DHT22;269;48.884;9.192;2023-04-15T04:04:08;4.30;99.90
569;DHT22;269;48.884;9.192;2023-04-15T04:06:35;4.30;99.90
569;DHT22;269;48.884;9.192;2023-04-15T04:09:02;4.20;99.90
569;DHT22;269;48.884;9.192;2023-04-15T04:11:30;4.10;99.90
569;DHT22;269;48.884;9.192;2023-04-15T04:13:58;4.00;99.90
569;DHT22;269;48.884;9.192;2023-04-15T04:16:25;4.00;99.90
569;DHT22;269;48.884;9.192;2023-04-15T04:18:53;3.90;99.90
569;DHT22;269;48.884;9.192;2023-04-15T04:21:21;3.90;99.90
569;DHT22;269;48.884;9.192;2023-04-15T04:23:49;3.80;99.90
569;DHT22;269;48.884;9.192;2023-04-15T04:26:16;3.80;99.90
569;DHT22;269;48.884;9.192;2023-04-15T04:28:45;3.80;99.90
569;DHT22;269;48.884;9.192;2023-04-15T04:31:12;3.80;99.90
569;DHT22;269;48.884;9.192;2023-04-15T04:33:40;3.80;99.90
569;DHT22;269;48.884;9.192;2023-04-15T04:36:09;3.80;99.90
569;DHT22;269;48.884;9.192;2023-04-15T04:38:36;3.90;99.90
569;DHT22;269;48.884;9.192;2023-04-15T04:41:04;3.90;99.90
569;DHT22;269;48.884;9.192;2023-04-15T04:43:32;3.90;99.90
569;DHT22;269;48.884;9.192;2023-04-15T04:45:59;3.90;99.90
569;DHT22;269;48.884;9.192;2023-04-15T04:48:27;3.90;99.90
569;DHT22;269;48.884;9.192;2023-04-15T04:50:55;3.90;99.90
569;DHT22;269;48.884;9.192;2023-04-15T04:53:24;3.90;99.90
569;DHT22;269;48.884;9.192;2023-04-15T04:55:52;3.90;99.90
569;DHT22;269;48.884;9.192;2023-04-15T04:58:19;3.80;99.90
569;DHT22;269;48.884;9.192;2023-04-15T05:00:47;3.80;99.90
569;DHT22;269;48.884;9.192;2023-04-15T05:03:14;3.80;99.90
569;DHT22;269;48.884;9.192;2023-04-15T05:05:42;3.70;99.90
569;DHT22;269;48.884;9.192;2023-04-15T05:08:09;3.70;99.90
569;DHT22;269;48.884;9.192;2023-04-15T05:10:37;3.70;99.90
569;DHT22;269;48.884;9.192;2023-04-15T05:13:04;3.70;99.90
569;DHT22;269;48.884;9.192;2023-04-15T05:15:31;3.70;99.90
569;DHT22;269;48.884;9.192;2023-04-15T05:17:59;3.70;99.90
569;DHT22;269;48.884;9.192;2023-04-15T05:20:26;3.80;99.90
569;DHT22;269;48.884;9.192;2023-04-15T05:22:53;3.80;99.90
569;DHT22;269;48.884;9.192;2023-04-15T05:25:20;3.90;99.90
569;DHT22;269;48.884;9.192;2023-04-15T05:27:49;3.90;99.90
569;DHT22;269;48.884;9.192;2023-04-15T05:30:16;4.00;99.90
569;DHT22;269;48.884;9.192;2023-04-15T05:32:43;4.00;99.90
569;DHT22;269;48.884;9.192;2023-04-15T05:35:10;4.00;99.90
569;DHT22;269;48.884;9.192;2023-04-15T05:37:37;4.00;99.90
569;DHT22;269;48.884;9.192;2023-04-15T05:40:05;4.00;99.90
569;DHT22;269;48.884;9.192;2023-04-15T05:42:32;4.00;99.90
569;DHT22;269;48.884;9.192;2023-04-15T05:45:02;4.10;99.90
569;DHT22;269;48.884;9.192;2023-04-15T05:47:30;4.10;99.90
569;DHT22;269;48.884;9.192;2023-04-15T05:49:57;4.20;99.90
569;DHT22;269;48.884;9.192;2023-04-15T05:52:24;4.20;99.90
569;DHT22;269;48.884;9.192;2023-04-15T05:54:52;4.30;99.90
569;DHT22;269;48.884;9.192;2023-04-15T05:57:19;4.30;99.90
569;DHT22;269;48.884;9.192;2023-04-15T05:59:46;4.30;99.90
569;DHT22;269;48.884;9.192;2023-04-15T06:02:14;4.30;99.90
569;DHT22;269;48.884;9.192;2023-04-15T06:04:41;4.50;99.90
569;DHT22;269;48.884;9.192;2023-04-15T06:07:08;4.50;99.90
569;DHT22;269;48.884;9.192;2023-04-15T06:09:35;4.60;99.90
569;DHT22;269;48.884;9.192;2023-04-15T06:12:02;4.70;99.90
569;DHT22;269;48.884;9.192;2023-04-15T06:14:31;4.80;99.90
569;DHT22;269;48.884;9.192;2023-04-15T06:16:58;4.90;99.90
569;DHT22;269;48.884;9.192;2023-04-15T06:19:26;4.80;99.90
569;DHT22;269;48.884;9.192;2023-04-15T06:21:54;5.10;99.90
569;DHT22;269;48.884;9.192;2023-04-15T06:24:21;5.10;99.90
569;DHT22;269;48.884;9.192;2023-04-15T06:26:48;5.30;99.90
569;DHT22;269;48.884;9.192;2023-04-15T06:29:15;5.50;99.90
569;DHT22;269;48.884;9.192;2023-04-15T06:31:42;5.70;99.90
569;DHT22;269;48.884;9.192;2023-04-15T06:34:09;6.00;99.90
569;DHT22;269;48.884;9.192;2023-04-15T06:36:37;6.30;99.90
569;DHT22;269;48.884;9.192;2023-04-15T06:39:04;6.50;99.90
569;DHT22;269;48.884;9.192;2023-04-15T06:41:32;6.50;99.90
569;DHT22;269;48.884;9.192;2023-04-15T06:43:59;6.50;99.90
569;DHT22;269;48.884;9.192;2023-04-15T06:46:26;6.60;99.90
569;DHT22;269;48.884;9.192;2023-04-15T06:48:53;6.80;99.90
569;DHT22;269;48.884;9.192;2023-04-15T06:51:20;7.00;99.90
569;DHT22;269;48.884;9.192;2023-04-15T06:53:49;7.40;99.90
569;DHT22;269;48.884;9.192;2023-04-15T06:56:17;7.60;99.90
569;DHT22;269;48.884;9.192;2023-04-15T06:58:44;7.70;99.90
569;DHT22;269;48.884;9.192;2023-04-15T07:01:13;7.90;99.90
569;DHT22;269;48.884;9.192;2023-04-15T07:03:40;8.10;99.90
569;DHT22;269;48.884;9.192;2023-04-15T07:06:07;8.40;99.90
569;DHT22;269;48.884;9.192;2023-04-15T07:08:34;8.60;99.90
569;DHT22;269;48.884;9.192;2023-04-15T07:11:03;8.70;99.90
569;DHT22;269;48.884;9.192;2023-04-15T07:13:31;8.80;99.90
569;DHT22;269;48.884;9.192;2023-04-15T07:15:58;8.70;99.90
569;DHT22;269;48.884;9.192;2023-04-15T07:18:25;8.70;99.90
569;DHT22;269;48.884;9.192;2023-04-15T07:20:52;8.70;99.90
569;DHT22;269;48.884;9.192;2023-04-15T07:23:19;8.70;99.90
569;DHT22;269;48.884;9.192;2023-04-15T07:25:46;8.60;99.90
569;DHT22;269;48.884;9.192;2023-04-15T07:28:14;8.60;99.90
569;DHT22;269;48.884;9.192;2023-04-15T07:30:41;8.60;99.90
569;DHT22;269;48.884;9.192;2023-04-15T07:33:09;8.60;99.90
569;DHT22;269;48.884;9.192;2023-04-15T07:35:35;8.70;99.90
569;DHT22;269;48.884;9.192;2023-04-15T07:38:02;8.80;99.90
569;DHT22;269;48.884;9.192;2023-04-15T07:40:30;9.20;99.90
569;DHT22;269;48.884;9.192;2023-04-15T07:42:56;9.60;99.90
569;DHT22;269;48.884;9.192;2023-04-15T07:45:25;10.20;99.90
569;DHT22;269;48.884;9.192;2023-04-15T07:47:52;10.80;99.90
569;DHT22;269;48.884;9.192;2023-04-15T07:50:20;11.20;99.90
569;DHT22;269;48.884;9.192;2023-04-15T07:52:48;11.70;99.90
569;DHT22;269;48.884;9.192;2023-04-15T07:55:16;12.00;99.90
569;DHT22;269;48.884;9.192;2023-04-15T07:57:44;12.40;99.90
569;DHT22;269;48.884;9.192;2023-04-15T08:00:13;12.50;99.90
569;DHT22;269;48.884;9.192;2023-04-15T08:02:42;12.80;99.90
569;DHT22;269;48.884;9.192;2023-04-15T08:05:12;13.10;99.90
569;DHT22;269;48.884;9.192;2023-04-15T08:07:40;13.30;99.90
569;DHT22;269;48.884;9.192;2023-04-15T08:10:07;13.70;99.90
569;DHT22;269;48.884;9.192;2023-04-15T08:12:35;14.00;99.90
569;DHT22;269;48.884;9.192;2023-04-15T08:15:02;14.40;99.90
569;DHT22;269;48.884;9.192;2023-04-15T08:17:30;14.90;99.90
569;DHT22;269;48.884;9.192;2023-04-15T08:19:58;15.40;99.90
569;DHT22;269;48.884;9.192;2023-04-15T08:22:25;15.80;99.90
569;DHT22;269;48.884;9.192;2023-04-15T08:24:52;16.10;99.90
569;DHT22;269;48.884;9.192;2023-04-15T08:27:19;16.40;99.90
569;DHT22;269;48.884;9.192;2023-04-15T08:29:46;16.70;99.90
569;DHT22;269;48.884;9.192;2023-04-15T08:32:14;16.90;99.60
569;DHT22;269;48.884;9.192;2023-04-15T08:34:41;17.10;98.40
569;DHT22;269;48.884;9.192;2023-04-15T08:37:09;17.30;97.90
569;DHT22;269;48.884;9.192;2023-04-15T08:39:36;17.40;96.70
569;DHT22;269;48.884;9.192;2023-04-15T08:42:10;17.60;96.60
569;DHT22;269;48.884;9.192;2023-04-15T08:44:38;18.00;95.50
569;DHT22;269;48.884;9.192;2023-04-15T08:47:07;18.40;94.70
569;DHT22;269;48.884;9.192;2023-04-15T08:49:38;18.70;93.90
569;DHT22;269;48.884;9.192;2023-04-15T08:52:06;19.00;93.00
569;DHT22;269;48.884;9.192;2023-04-15T08:54:35;19.10;92.30
569;DHT22;269;48.884;9.192;2023-04-15T08:57:03;19.20;91.30
569;DHT22;269;48.884;9.192;2023-04-15T08:59:30;19.30;91.10
569;DHT22;269;48.884;9.192;2023-04-15T09:01:58;19.50;90.20
569;DHT22;269;48.884;9.192;2023-04-15T09:04:27;19.60;89.90
569;DHT22;269;48.884;9.192;2023-04-15T09:06:54;19.80;89.10
569;DHT22;269;48.884;9.192;2023-04-15T09:09:22;19.90;88.40
569;DHT22;269;48.884;9.192;2023-04-15T09:11:50;19.80;88.10
569;DHT22;269;48.884;9.192;2023-04-15T09:14:17;20.00;88.60
569;DHT22;269;48.884;9.192;2023-04-15T09:16:58;20.00;86.70
569;DHT22;269;48.884;9.192;2023-04-15T09:19:25;20.00;86.90
569;DHT22;269;48.884;9.192;2023-04-15T09:21:54;20.00;85.80
569;DHT22;269;48.884;9.192;2023-04-15T09:24:22;19.80;87.20
569;DHT22;269;48.884;9.192;2023-04-15T09:26:53;19.80;86.50
569;DHT22;269;48.884;9.192;2023-04-15T09:29:23;19.80;84.70
569;DHT22;269;48.884;9.192;2023-04-15T09:31:51;19.60;84.70
569;DHT22;269;48.884;9.192;2023-04-15T09:34:18;19.30;85.10
569;DHT22;269;48.884;9.192;2023-04-15T09:36:53;19.10;86.20
569;DHT22;269;48.884;9.192;2023-04-15T09:39:21;19.00;86.40
569;DHT22;269;48.884;9.192;2023-04-15T09:42:03;18.70;84.60
569;DHT22;269;48.884;9.192;2023-04-15T09:44:30;18.50;85.10
569;DHT22;269;48.884;9.192;2023-04-15T09:46:57;18.40;87.00
569;DHT22;269;48.884;9.192;2023-04-15T09:49:24;18.30;87.50
569;DHT22;269;48.884;9.192;2023-04-15T09:51:57;18.20;87.40
569;DHT22;269;48.884;9.192;2023-04-15T09:54:24;18.20;88.00
569;DHT22;269;48.884;9.192;2023-04-15T09:56:51;18.20;88.30
569;DHT22;269;48.884;9.192;2023-04-15T09:59:19;18.20;87.40
569;DHT22;269;48.884;9.192;2023-04-15T10:01:46;18.10;87.90
569;DHT22;269;48.884;9.192;2023-04-15T10:04:14;18.20;88.60
569;DHT22;269;48.884;9.192;2023-04-15T10:06:42;18.30;88.20
569;DHT22;269;48.884;9.192;2023-04-15T10:09:09;18.50;87.90
569;DHT22;269;48.884;9.192;2023-04-15T10:11:36;18.60;88.40
569;DHT22;269;48.884;9.192;2023-04-15T10:14:04;18.90;87.40
569;DHT22;269;48.884;9.192;2023-04-15T10:16:34;19.20;86.70
569;DHT22;269;48.884;9.192;2023-04-15T10:19:05;19.60;86.40
569;DHT22;269;48.884;9.192;2023-04-15T10:21:33;20.00;84.70
569;DHT22;269;48.884;9.192;2023-04-15T10:24:01;20.50;83.60
569;DHT22;269;48.884;9.192;2023-04-15T10:26:29;20.90;81.30
569;DHT22;269;48.884;9.192;2023-04-15T10:28:57;21.20;79.50
569;DHT22;269;48.884;9.192;2023-04-15T10:31:25;21.30;78.90
569;DHT22;269;48.884;9.192;2023-04-15T10:33:53;21.50;76.60
569;DHT22;269;48.884;9.192;2023-04-15T10:36:21;21.20;75.70
569;DHT22;269;48.884;9.192;2023-04-15T10:38:48;21.10;76.30
569;DHT22;269;48.884;9.192;2023-04-15T10:41:17;21.20;76.90
569;DHT22;269;48.884;9.192;2023-04-15T10:43:49;21.30;75.70
569;DHT22;269;48.884;9.192;2023-04-15T10:46:18;21.50;75.30
569;DHT22;269;48.884;9.192;2023-04-15T10:48:47;21.70;74.10
569;DHT22;269;48.884;9.192;2023-04-15T10:51:16;22.00;73.10
569;DHT22;269;48.884;9.192;2023-04-15T10:53:55;22.20;71.90
569;DHT22;269;48.884;9.192;2023-04-15T10:56:22;22.30;71.30
569;DHT22;269;48.884;9.192;2023-04-15T10:58:49;22.70;70.40
569;DHT22;269;48.884;9.192;2023-04-15T11:01:18;23.00;70.30
569;DHT22;269;48.884;9.192;2023-04-15T11:03:46;23.30;70.40
569;DHT22;269;48.884;9.192;2023-04-15T11:06:15;23.80;69.60
569;DHT22;269;48.884;9.192;2023-04-15T11:08:53;24.10;68.70
569;DHT22;269;48.884;9.192;2023-04-15T11:11:21;24.40;67.30
569;DHT22;269;48.884;9.192;2023-04-15T11:13:49;24.20;67.30
569;DHT22;269;48.884;9.192;2023-04-15T11:16:17;23.80;67.40
569;DHT22;269;48.884;9.192;2023-04-15T11:18:53;23.00;68.30
569;DHT22;269;48.884;9.192;2023-04-15T11:21:24;22.50;69.50
569;DHT22;269;48.884;9.192;2023-04-15T11:23:51;21.80;70.20
569;DHT22;269;48.884;9.192;2023-04-15T11:26:18;21.70;72.00
569;DHT22;269;48.884;9.192;2023-04-15T11:28:46;21.30;72.50
569;DHT22;269;48.884;9.192;2023-04-15T11:31:14;20.90;72.70
569;DHT22;269;48.884;9.192;2023-04-15T11:33:47;20.40;72.10
569;DHT22;269;48.884;9.192;2023-04-15T11:36:19;19.90;73.10
569;DHT22;269;48.884;9.192;2023-04-15T11:38:47;19.60;74.00
569;DHT22;269;48.884;9.192;2023-04-15T11:41:14;19.40;73.90
569;DHT22;269;48.884;9.192;2023-04-15T11:43:46;19.20;74.10
569;DHT22;269;48.884;9.192;2023-04-15T11:46:13;19.30;74.70
569;DHT22;269;48.884;9.192;2023-04-15T11:48:42;19.10;74.40
569;DHT22;269;48.884;9.192;2023-04-15T11:51:11;18.90;73.00
569;DHT22;269;48.884;9.192;2023-04-15T11:53:40;18.70;73.30
569;DHT22;269;48.884;9.192;2023-04-15T11:56:10;18.50;74.00
569;DHT22;269;48.884;9.192;2023-04-15T11:58:38;18.40;75.10
569;DHT22;269;48.884;9.192;2023-04-15T12:01:05;18.30;74.60
569;DHT22;269;48.884;9.192;2023-04-15T12:03:37;18.30;74.50
569;DHT22;269;48.884;9.192;2023-04-15T12:06:15;18.30;75.10
569;DHT22;269;48.884;9.192;2023-04-15T12:09:00;18.20;77.80
569;DHT22;269;48.884;9.192;2023-04-15T12:14:21;18.10;77.00
569;DHT22;269;48.884;9.192;2023-04-15T12:16:50;17.80;77.00
569;DHT22;269;48.884;9.192;2023-04-15T12:19:22;17.30;78.90
569;DHT22;269;48.884;9.192;2023-04-15T12:21:52;16.40;87.40
569;DHT22;269;48.884;9.192;2023-04-15T12:24:20;15.60;91.60
569;DHT22;269;48.884;9.192;2023-04-15T12:26:51;15.10;94.70
569;DHT22;269;48.884;9.192;2023-04-15T12:29:19;14.00;95.90
569;DHT22;269;48.884;9.192;2023-04-15T12:31:50;13.40;97.90
569;DHT22;269;48.884;9.192;2023-04-15T12:34:26;12.90;99.20
569;DHT22;269;48.884;9.192;2023-04-15T12:36:54;12.50;99.90
569;DHT22;269;48.884;9.192;2023-04-15T12:39:23;12.20;99.90
569;DHT22;269;48.884;9.192;2023-04-15T12:41:51;12.10;99.90
569;DHT22;269;48.884;9.192;2023-04-15T12:44:21;12.10;99.90
569;DHT22;269;48.884;9.192;2023-04-15T12:46:48;12.30;99.90
569;DHT22;269;48.884;9.192;2023-04-15T12:49:15;12.50;99.90
569;DHT22;269;48.884;9.192;2023-04-15T12:51:45;12.80;99.90
569;DHT22;269;48.884;9.192;2023-04-15T12:54:12;13.00;99.90
569;DHT22;269;48.884;9.192;2023-04-15T12:56:40;13.20;99.90
569;DHT22;269;48.884;9.192;2023-04-15T12:59:08;13.30;99.90
569;DHT22;269;48.884;9.192;2023-04-15T13:01:36;13.40;99.90
569;DHT22;269;48.884;9.192;2023-04-15T13:04:03;13.60;99.90
569;DHT22;269;48.884;9.192;2023-04-15T13:06:30;13.70;99.90
569;DHT22;269;48.884;9.192;2023-04-15T13:08:58;13.90;99.90
569;DHT22;269;48.884;9.192;2023-04-15T13:11:26;14.10;99.90
569;DHT22;269;48.884;9.192;2023-04-15T13:13:55;14.20;99.90
569;DHT22;269;48.884;9.192;2023-04-15T13:16:24;14.30;99.90
569;DHT22;269;48.884;9.192;2023-04-15T13:18:51;14.30;99.80
569;DHT22;269;48.884;9.192;2023-04-15T13:21:19;14.30;98.30
569;DHT22;269;48.884;9.192;2023-04-15T13:23:47;14.30;97.50
569;DHT22;269;48.884;9.192;2023-04-15T13:26:14;14.20;96.20
569;DHT22;269;48.884;9.192;2023-04-15T13:28:41;14.20;94.20
569;DHT22;269;48.884;9.192;2023-04-15T13:31:08;14.20;93.60
569;DHT22;269;48.884;9.192;2023-04-15T13:33:37;14.20;92.90
569;DHT22;269;48.884;9.192;2023-04-15T13:36:04;14.30;92.30
569;DHT22;269;48.884;9.192;2023-04-15T13:38:31;14.30;92.20
569;DHT22;269;48.884;9.192;2023-04-15T13:40:58;14.40;92.10
569;DHT22;269;48.884;9.192;2023-04-15T13:43:25;14.40;91.20
569;DHT22;269;48.884;9.192;2023-04-15T13:45:52;14.40;90.70
569;DHT22;269;48.884;9.192;2023-04-15T13:48:19;14.30;90.60
569;DHT22;269;48.884;9.192;2023-04-15T13:50:49;14.20;91.00
569;DHT22;269;48.884;9.192;2023-04-15T13:53:16;14.20;92.80
569;DHT22;269;48.884;9.192;2023-04-15T13:55:43;14.10;91.70
569;DHT22;269;48.884;9.192;2023-04-15T13:58:10;14.30;90.60
569;DHT22;269;48.884;9.192;2023-04-15T14:00:37;14.00;90.20
569;DHT22;269;48.884;9.192;2023-04-15T14:03:04;13.90;90.10
569;DHT22;269;48.884;9.192;2023-04-15T14:05:31;13.90;90.00
569;DHT22;269;48.884;9.192;2023-04-15T14:08:00;13.80;88.90
569;DHT22;269;48.884;9.192;2023-04-15T14:10:27;13.70;89.30
569;DHT22;269;48.884;9.192;2023-04-15T14:12:54;13.70;90.30
569;DHT22;269;48.884;9.192;2023-04-15T14:15:21;13.70;90.70
569;DHT22;269;48.884;9.192;2023-04-15T14:17:48;13.70;90.50
569;DHT22;269;48.884;9.192;2023-04-15T14:20:15;13.70;91.00
569;DHT22;269;48.884;9.192;2023-04-15T14:22:43;13.60;91.00
569;DHT22;269;48.884;9.192;2023-04-15T14:25:11;13.60;90.70
569;DHT22;269;48.884;9.192;2023-04-15T14:27:38;13.50;90.80
569;DHT22;269;48.884;9.192;2023-04-15T14:30:06;13.40;90.90
569;DHT22;269;48.884;9.192;2023-04-15T14:32:33;13.40;91.30
569;DHT22;269;48.884;9.192;2023-04-15T14:35:00;13.30;91.20
569;DHT22;269;48.884;9.192;2023-04-15T14:37:29;13.30;91.40
569;DHT22;269;48.884;9.192;2023-04-15T14:39:56;13.20;90.80
569;DHT22;269;48.884;9.192;2023-04-15T14:42:24;13.00;90.20
569;DHT22;269;48.884;9.192;2023-04-15T14:44:51;12.90;90.30
569;DHT22;269;48.884;9.192;2023-04-15T14:47:18;12.80;90.10
569;DHT22;269;48.884;9.192;2023-04-15T14:49:45;12.60;89.50
569;DHT22;269;48.884;9.192;2023-04-15T14:52:12;12.40;90.40
569;DHT22;269;48.884;9.192;2023-04-15T14:54:39;12.40;90.60
569;DHT22;269;48.884;9.192;2023-04-15T14:57:06;12.30;91.20
569;DHT22;269;48.884;9.192;2023-04-15T14:59:35;12.30;91.50
569;DHT22;269;48.884;9.192;2023-04-15T15:02:02;12.30;92.10
569;DHT22;269;48.884;9.192;2023-04-15T15:04:29;12.30;92.60
569;DHT22;269;48.884;9.192;2023-04-15T15:06:58;12.20;92.90
569;DHT22;269;48.884;9.192;2023-04-15T15:09:26;12.20;93.30
569;DHT22;269;48.884;9.192;2023-04-15T15:11:52;12.20;93.50
569;DHT22;269;48.884;9.192;2023-04-15T15:14:21;12.10;93.70
569;DHT22;269;48.884;9.192;2023-04-15T15:16:50;12.00;93.70
569;DHT22;269;48.884;9.192;2023-04-15T15:19:17;12.00;93.70
569;DHT22;269;48.884;9.192;2023-04-15T15:21:44;11.90;93.80
569;DHT22;269;48.884;9.192;2023-04-15T15:24:11;11.80;93.70
569;DHT22;269;48.884;9.192;2023-04-15T15:26:38;11.80;93.90
569;DHT22;269;48.884;9.192;2023-04-15T15:29:05;11.70;94.30
569;DHT22;269;48.884;9.192;2023-04-15T15:31:33;11.70;94.40
569;DHT22;269;48.884;9.192;2023-04-15T15:34:02;11.80;94.70
569;DHT22;269;48.884;9.192;2023-04-15T15:36:29;11.80;94.40
569;DHT22;269;48.884;9.192;2023-04-15T15:38:56;11.70;95.10
569;DHT22;269;48.884;9.192;2023-04-15T15:41:24;11.80;95.10
569;DHT22;269;48.884;9.192;2023-04-15T15:43:52;11.70;95.80
569;DHT22;269;48.884;9.192;2023-04-15T15:46:19;11.70;96.30
569;DHT22;269;48.884;9.192;2023-04-15T15:48:46;11.70;96.80
569;DHT22;269;48.884;9.192;2023-04-15T15:51:14;11.70;97.40
569;DHT22;269;48.884;9.192;2023-04-15T15:53:41;11.70;98.70
569;DHT22;269;48.884;9.192;2023-04-15T15:56:09;11.60;99.60
569;DHT22;269;48.884;9.192;2023-04-15T15:58:36;11.60;99.90
569;DHT22;269;48.884;9.192;2023-04-15T16:01:03;11.50;99.90
569;DHT22;269;48.884;9.192;2023-04-15T16:03:31;11.50;99.90
569;DHT22;269;48.884;9.192;2023-04-15T16:05:58;11.50;99.90
569;DHT22;269;48.884;9.192;2023-04-15T16:08:26;11.50;99.90
569;DHT22;269;48.884;9.192;2023-04-15T16:10:53;11.50;99.90
569;DHT22;269;48.884;9.192;2023-04-15T16:13:20;11.50;99.90
569;DHT22;269;48.884;9.192;2023-04-15T16:15:48;11.60;99.90
569;DHT22;269;48.884;9.192;2023-04-15T16:18:15;11.60;99.90
569;DHT22;269;48.884;9.192;2023-04-15T16:20:42;11.60;99.90
569;DHT22;269;48.884;9.192;2023-04-15T16:23:12;11.60;99.90
569;DHT22;269;48.884;9.192;2023-04-15T16:25:43;11.60;99.90
569;DHT22;269;48.884;9.192;2023-04-15T16:28:10;11.60;99.90
569;DHT22;269;48.884;9.192;2023-04-15T16:30:38;11.60;99.90
569;DHT22;269;48.884;9.192;2023-04-15T16:33:06;11.60;99.90
569;DHT22;269;48.884;9.192;2023-04-15T16:35:33;11.60;99.90
569;DHT22;269;48.884;9.192;2023-04-15T16:38:00;11.60;99.90
569;DHT22;269;48.884;9.192;2023-04-15T16:40:27;11.50;99.90
569;DHT22;269;48.884;9.192;2023-04-15T16:42:56;11.50;99.90
569;DHT22;269;48.884;9.192;2023-04-15T16:45:23;11.40;99.90
569;DHT22;269;48.884;9.192;2023-04-15T16:47:50;11.30;99.90